Información del aeropuerto LGIR

Información de pista
Pista 09 Longitud 8800 ft Anchura 148 ft
Elevación 78 ft Umbral 1565 ft Rumbo 95
Pista 27 Longitud 8800 ft Anchura 148 ft
Elevación 82 ft Umbral ft Rumbo 275
Pista 12 Longitud 5138 ft Anchura 164 ft
Elevación 57 ft Umbral 499 ft Rumbo 126
Pista 30 Longitud 5138 ft Anchura 164 ft
Elevación 115 ft Umbral ft Rumbo 306
Pista 18 Longitud 2559 ft Anchura 131 ft
Elevación 78 ft Umbral ft Rumbo 180
Pista 36 Longitud 2559 ft Anchura 131 ft
Elevación 115 ft Umbral 328 ft Rumbo 0
Frecuencias del aeropuerto
Tipo A/G Nombre KAZANTZAKI Frecuencia 563.7 MHZ
Tipo APP Nombre IRAKLION A Frecuencia 123.975 MHZ
Tipo ATIS Nombre ATIS Frecuencia 127.55 MHZ
Tipo DIR Nombre IRAKLION D Frecuencia 118.025 MHZ
Tipo GND Nombre KAZANTZAKI Frecuencia 121.7 MHZ
Tipo TRSA Nombre IRAKLION R Frecuencia 123.975 MHZ
Tipo TWR Nombre KAZANTZAKI Frecuencia 120.85 MHZ
Radioayudas del aeropuerto
Tipo NDB Nombre Iraklion Frecuencia 431 KHZ
Tipo VOR-DME Nombre Iraklion Frecuencia 108800 KHZ
Tipo TACAN Nombre Iraklion Frecuencia 108300 KHZ
Información meteorológica del aeropuerto y NOTAM
ADDS - METARS form results

(2311 UTC 08 August 2022)
Data provider http://aviationweather.gov/metar/data/
 
METAR text: LGIR 082250Z 28010KT 9999 FEW020 25/20 Q1009 NOSIG
Conditions at: LGIR (IRAKLION (CIV/AF, GR) observed 2250 UTC 08 August 2022
Temperature: 25.0°C (77°F)
Dewpoint: 20.0°C (68°F) [RH = 74%]
Pressure (altimeter): 29.79 inches Hg (1009.0 mb)
Winds: from the W (280 degrees) at 12 MPH (10 knots; 5.1 m/s)
Visibility: 6 or more miles (10+ km)
Ceiling: at least 12,000 feet AGL
Clouds: few clouds at 2000 feet AGL
Weather: no significant weather observed at this time

METAR text: LGIR 082220Z 29010KT 9999 FEW020 26/21 Q1009 NOSIG
Conditions at: LGIR (IRAKLION (CIV/AF, GR) observed 2220 UTC 08 August 2022
Temperature: 26.0°C (79°F)
Dewpoint: 21.0°C (70°F) [RH = 74%]
Pressure (altimeter): 29.79 inches Hg (1009.0 mb)
Winds: from the WNW (290 degrees) at 12 MPH (10 knots; 5.1 m/s)
Visibility: 6 or more miles (10+ km)
Ceiling: at least 12,000 feet AGL
Clouds: few clouds at 2000 feet AGL
Weather: no significant weather observed at this time

Forecast for: LGIR (IRAKLION (CIV/AF, GR)
Text: TAF LGIR 082300Z 0900/0924 32015KT 9999 FEW020
Forecast period: 0000 UTC 09 August 2022 to 0000 UTC 10 August 2022
Forecast type: FROM: standard forecast or significant change
Winds: from the NW (320 degrees) at 17 MPH (15 knots; 7.7 m/s)
Visibility: 6 or more miles (10+ km)
Ceiling: at least 12,000 feet AGL
Clouds: few clouds at 2000 feet AGL
Weather: no significant weather forecast for this period
Text: TEMPO 0909/0914 SCT020 BKN040
Forecast period: 0900 to 1400 UTC 09 August 2022
Forecast type: TEMPORARY: The following changes expected for less than half the time period
Visibility: missing
Ceiling: 4000 feet AGL
Clouds: scattered clouds at 2000 feet AGL
broken clouds at 4000 feet AGL
Weather: no significant weather forecast for this period